Time;durP1;ratioP1;P1;durP2;ratioP2;P2;SDS_P1;SDS_P2;PMS_P1;PMS_P2;Temp;Humidity;BMP_temperature;BMP_pressure;BME280_temperature;BME280_humidity;BME280_pressure;Samples;Min_cycle;Max_cycle;Signal;HPM_P1;HPM_P2
2022/06/01 00:01:06;;;;;;;13.43;12.13;;;12.10;99.90;;;;;;5052131;28;20036;-72
2022/06/01 00:03:36;;;;;;;14.63;13.10;;;12.10;99.90;;;;;;5028162;28;20493;-73
2022/06/01 00:06:02;;;;;;;14.23;12.82;;;12.10;99.90;;;;;;5029353;28;20484;-72
2022/06/01 00:08:27;;;;;;;15.20;13.60;;;12.10;99.90;;;;;;5027989;28;20139;-73
2022/06/01 00:10:53;;;;;;;14.73;13.43;;;12.00;99.90;;;;;;5028150;28;20045;-72
2022/06/01 00:13:19;;;;;;;15.35;13.50;;;12.00;99.90;;;;;;5028958;28;20037;-73
2022/06/01 00:15:46;;;;;;;15.07;13.57;;;11.90;99.90;;;;;;5029410;28;20381;-73
2022/06/01 00:18:11;;;;;;;15.65;14.05;;;11.90;99.90;;;;;;5026102;28;20476;-72
2022/06/01 00:20:37;;;;;;;17.42;14.43;;;11.90;99.90;;;;;;5028664;28;20045;-73
2022/06/01 00:23:03;;;;;;;17.17;14.35;;;11.90;99.90;;;;;;5029802;28;20079;-72
2022/06/01 00:25:29;;;;;;;18.90;15.10;;;11.90;99.90;;;;;;5029842;28;20049;-73
2022/06/01 00:27:55;;;;;;;16.05;14.55;;;11.80;99.90;;;;;;5031359;28;20042;-73
2022/06/01 00:30:22;;;;;;;16.15;14.52;;;11.80;99.90;;;;;;5026382;28;20045;-73
2022/06/01 00:32:48;;;;;;;17.35;15.25;;;11.80;99.90;;;;;;5028638;28;20466;-73
2022/06/01 00:35:16;;;;;;;15.98;14.40;;;11.80;99.90;;;;;;5031808;28;20413;-72
2022/06/01 00:37:42;;;;;;;17.98;15.23;;;11.70;99.90;;;;;;5026363;28;20033;-73
2022/06/01 00:40:09;;;;;;;16.23;14.52;;;11.70;99.90;;;;;;5028895;28;20399;-73
2022/06/01 00:42:38;;;;;;;17.27;14.68;;;11.70;99.90;;;;;;5030910;28;20376;-72
2022/06/01 00:45:07;;;;;;;21.80;15.32;;;11.60;99.90;;;;;;5029040;28;20049;-72
2022/06/01 00:47:32;;;;;;;16.90;15.20;;;11.60;99.90;;;;;;5026864;28;20103;-72
2022/06/01 00:49:58;;;;;;;16.48;14.23;;;11.60;99.90;;;;;;5029361;28;20439;-73
2022/06/01 00:52:38;;;;;;;17.15;15.23;;;11.50;99.90;;;;;;5027348;28;20045;-73
2022/06/01 00:55:09;;;;;;;17.40;15.80;;;11.50;99.90;;;;;;5029651;28;20037;-72
2022/06/01 00:57:35;;;;;;;17.13;14.68;;;11.50;99.90;;;;;;5029231;28;20372;-72
2022/06/01 01:00:15;;;;;;;15.30;13.80;;;11.50;99.90;;;;;;5028499;28;20041;-72
2022/06/01 01:02:41;;;;;;;16.17;14.57;;;11.40;99.90;;;;;;5028250;28;20388;-72
2022/06/01 01:05:10;;;;;;;15.15;13.65;;;11.40;99.90;;;;;;5027995;28;20058;-72
2022/06/01 01:07:36;;;;;;;14.70;13.30;;;11.40;99.90;;;;;;5024874;28;20149;-72
2022/06/01 01:10:04;;;;;;;15.80;14.20;;;11.40;99.90;;;;;;5029476;28;20048;-72
2022/06/01 01:12:56;;;;;;;15.85;14.32;;;11.40;99.90;;;;;;5025883;28;20033;-73
2022/06/01 01:15:17;;;;;;;16.23;14.57;;;11.40;99.90;;;;;;5025526;28;20056;-73
2022/06/01 01:17:44;;;;;;;16.63;14.55;;;11.30;99.90;;;;;;5023652;28;20102;-73
2022/06/01 01:20:10;;;;;;;15.57;13.98;;;11.30;99.90;;;;;;5027233;28;20041;-72
2022/06/01 01:22:59;;;;;;;15.98;13.95;;;11.30;99.90;;;;;;5027763;28;20183;-72
2022/06/01 01:25:33;;;;;;;17.13;14.32;;;11.30;99.90;;;;;;5005478;28;20110;-73
2022/06/01 01:28:02;;;;;;;17.15;15.38;;;11.30;99.90;;;;;;5043441;28;20052;-73
2022/06/01 01:30:40;;;;;;;15.65;14.15;;;11.30;99.90;;;;;;5026829;28;20041;-73
2022/06/01 01:33:09;;;;;;;17.75;14.43;;;11.30;99.90;;;;;;5026953;28;20032;-73
2022/06/01 01:35:36;;;;;;;16.92;15.20;;;11.30;99.90;;;;;;5027632;28;20052;-73
2022/06/01 01:38:07;;;;;;;15.65;14.10;;;11.30;99.90;;;;;;5026552;28;20033;-72
2022/06/01 01:40:34;;;;;;;16.45;14.82;;;11.30;99.90;;;;;;5027925;28;20085;-73
2022/06/01 01:43:01;;;;;;;17.40;15.70;;;11.30;99.90;;;;;;5015592;28;20141;-73
2022/06/01 01:45:31;;;;;;;19.88;16.80;;;11.30;99.90;;;;;;5025500;28;20041;-72
2022/06/01 01:47:56;;;;;;;17.85;16.10;;;11.30;99.90;;;;;;5027938;28;20045;-72
2022/06/01 01:50:23;;;;;;;17.65;15.93;;;11.30;99.90;;;;;;5025980;28;20056;-73
2022/06/01 01:52:49;;;;;;;18.90;16.65;;;11.30;99.90;;;;;;5009614;28;20103;-72
2022/06/01 01:55:20;;;;;;;17.65;15.90;;;11.20;99.90;;;;;;5026844;28;20396;-72
2022/06/01 01:58:09;;;;;;;18.52;16.63;;;11.20;99.90;;;;;;5026501;28;20091;-73
2022/06/01 02:00:39;;;;;;;18.63;16.80;;;11.20;99.90;;;;;;5026624;28;20044;-73
2022/06/01 02:03:08;;;;;;;21.13;19.00;;;11.20;99.90;;;;;;5029442;28;20064;-73
2022/06/01 02:06:07;;;;;;;21.65;19.35;;;11.20;99.90;;;;;;5029089;28;20049;-72
2022/06/01 02:08:50;;;;;;;21.70;19.70;;;11.30;99.90;;;;;;5027461;28;20042;-72
2022/06/01 02:14:35;;;;;;;22.17;19.95;;;11.30;99.90;;;;;;5021724;28;20057;-72
2022/06/01 02:17:05;;;;;;;23.38;20.98;;;11.30;99.90;;;;;;5028274;28;20171;-72
2022/06/01 02:19:39;;;;;;;24.20;20.92;;;11.30;99.90;;;;;;5044155;28;20118;-73
2022/06/01 02:22:05;;;;;;;23.27;20.88;;;11.30;99.90;;;;;;5032222;28;20409;-72
2022/06/01 02:24:31;;;;;;;24.08;21.58;;;11.20;99.90;;;;;;5025082;28;20072;-72
2022/06/01 02:26:58;;;;;;;23.27;20.88;;;11.30;99.90;;;;;;5011714;28;20410;-72
2022/06/01 02:29:53;;;;;;;22.67;20.40;;;11.30;99.90;;;;;;5026751;28;20052;-72
2022/06/01 02:32:22;;;;;;;22.00;19.77;;;11.40;99.90;;;;;;4977902;28;20140;-72
2022/06/01 02:34:49;;;;;;;22.27;20.08;;;11.40;99.90;;;;;;5028440;28;20049;-72
2022/06/01 02:37:17;;;;;;;23.10;20.85;;;11.40;99.90;;;;;;5029238;28;20033;-72
2022/06/01 02:39:46;;;;;;;22.83;20.63;;;11.40;99.90;;;;;;5026751;28;20043;-72
2022/06/01 02:42:25;;;;;;;21.90;19.67;;;11.50;99.90;;;;;;5027898;28;20045;-72
2022/06/01 02:45:00;;;;;;;22.35;20.25;;;11.50;99.90;;;;;;5027802;28;20044;-72
2022/06/01 02:47:28;;;;;;;22.58;20.50;;;11.50;99.90;;;;;;5028679;28;20045;-72
2022/06/01 02:49:55;;;;;;;28.48;21.63;;;11.50;99.90;;;;;;5026493;28;20124;-72
2022/06/01 02:52:21;;;;;;;22.83;20.63;;;11.50;99.90;;;;;;5028872;28;20128;-72
2022/06/01 02:54:47;;;;;;;22.65;20.48;;;11.50;99.90;;;;;;5026414;28;20034;-72
2022/06/01 02:57:14;;;;;;;23.08;20.73;;;11.50;99.90;;;;;;5028794;28;20104;-72
2022/06/01 02:59:41;;;;;;;23.10;20.98;;;11.50;99.90;;;;;;5032810;28;20079;-72
2022/06/01 03:02:09;;;;;;;23.13;20.90;;;11.50;99.90;;;;;;5028971;28;20087;-72
2022/06/01 03:04:39;;;;;;;23.60;21.25;;;11.40;99.90;;;;;;5029929;28;20061;-72
2022/06/01 03:07:05;;;;;;;22.50;20.40;;;11.40;99.90;;;;;;5031795;28;20156;-72
2022/06/01 03:09:32;;;;;;;22.52;20.40;;;11.40;99.90;;;;;;5029624;28;20051;-72
2022/06/01 03:11:58;;;;;;;23.63;21.50;;;11.40;99.90;;;;;;5031131;28;20042;-72
2022/06/01 03:14:25;;;;;;;24.00;21.48;;;11.40;99.90;;;;;;5029271;28;20052;-72
2022/06/01 03:16:51;;;;;;;24.45;22.02;;;11.30;99.90;;;;;;5030144;28;20037;-72
2022/06/01 03:19:17;;;;;;;23.33;21.15;;;11.30;99.90;;;;;;5029711;28;20045;-72
2022/06/01 03:21:43;;;;;;;24.23;21.85;;;11.20;99.90;;;;;;5045955;28;20095;-72
2022/06/01 03:24:09;;;;;;;24.17;21.77;;;11.20;99.90;;;;;;5029719;28;20103;-72
2022/06/01 03:26:36;;;;;;;24.25;21.83;;;11.30;99.90;;;;;;5029002;28;20033;-73
2022/06/01 03:29:03;;;;;;;23.80;21.60;;;11.20;99.90;;;;;;5030774;28;20037;-72
2022/06/01 03:31:29;;;;;;;24.08;21.77;;;11.20;99.90;;;;;;5030185;28;20133;-72
2022/06/01 03:33:55;;;;;;;24.48;22.17;;;11.10;99.90;;;;;;5034527;28;20033;-72
2022/06/01 03:36:21;;;;;;;23.80;21.58;;;11.20;99.90;;;;;;5031326;28;20041;-72
2022/06/01 03:38:47;;;;;;;25.25;22.77;;;11.20;99.90;;;;;;5030272;28;20087;-72
2022/06/01 03:41:12;;;;;;;25.42;23.02;;;11.10;99.90;;;;;;5028837;28;20056;-72
2022/06/01 03:46:22;;;;;;;26.35;23.80;;;11.10;99.90;;;;;;5027277;28;20046;-72
2022/06/01 03:48:49;;;;;;;25.42;22.80;;;11.10;99.90;;;;;;5027058;28;20048;-72
2022/06/01 03:51:15;;;;;;;24.80;22.48;;;11.10;99.90;;;;;;5030687;28;20087;-72
2022/06/01 03:53:41;;;;;;;24.85;22.45;;;11.10;99.90;;;;;;5026557;28;20068;-72
2022/06/01 03:56:08;;;;;;;25.67;23.17;;;11.10;99.90;;;;;;5028990;28;20065;-72
2022/06/01 03:58:35;;;;;;;24.65;22.15;;;11.20;99.90;;;;;;5030690;28;20069;-72
2022/06/01 04:01:02;;;;;;;26.23;23.48;;;11.10;99.90;;;;;;5026281;28;20172;-72
2022/06/01 04:03:27;;;;;;;26.40;23.70;;;11.10;99.90;;;;;;5030448;28;20414;-72
2022/06/01 04:05:54;;;;;;;26.77;24.08;;;11.10;99.90;;;;;;5030163;28;20045;-72
2022/06/01 04:08:20;;;;;;;26.77;24.17;;;11.10;99.90;;;;;;5028185;28;20045;-72
2022/06/01 04:10:46;;;;;;;25.58;23.15;;;11.10;99.90;;;;;;5026141;28;20053;-72
2022/06/01 04:13:13;;;;;;;25.65;23.20;;;11.10;99.90;;;;;;5031632;28;20047;-72
2022/06/01 04:15:38;;;;;;;26.13;23.52;;;11.20;99.90;;;;;;5030464;28;20045;-72
2022/06/01 04:18:04;;;;;;;26.67;24.08;;;11.20;99.90;;;;;;5029245;28;20037;-72
2022/06/01 04:20:30;;;;;;;27.02;24.52;;;11.10;99.90;;;;;;5029710;28;20040;-72
2022/06/01 04:23:00;;;;;;;26.85;24.13;;;11.10;99.90;;;;;;5030945;28;20099;-72
2022/06/01 04:25:27;;;;;;;28.05;25.20;;;11.20;99.90;;;;;;5030859;28;20124;-72
2022/06/01 04:27:53;;;;;;;26.88;24.38;;;11.10;99.90;;;;;;5024873;28;20093;-73
2022/06/01 04:30:20;;;;;;;28.10;25.38;;;11.20;99.90;;;;;;5029275;28;20068;-72
2022/06/01 04:32:49;;;;;;;25.13;22.55;;;11.20;99.90;;;;;;5032600;28;20040;-72
2022/06/01 04:35:15;;;;;;;26.08;23.48;;;11.30;99.90;;;;;;5032146;28;20044;-72
2022/06/01 04:37:41;;;;;;;29.20;26.30;;;11.30;99.90;;;;;;5028839;28;20033;-72
2022/06/01 04:40:08;;;;;;;27.58;24.98;;;11.30;99.90;;;;;;5029871;28;20041;-73
2022/06/01 04:42:35;;;;;;;26.45;23.73;;;11.30;99.90;;;;;;5030010;28;20499;-72
2022/06/01 04:45:01;;;;;;;28.45;25.75;;;11.40;99.90;;;;;;5029170;28;20100;-72
2022/06/01 04:47:26;;;;;;;27.33;24.60;;;11.30;99.90;;;;;;5012181;28;20045;-72
2022/06/01 04:49:52;;;;;;;27.98;25.02;;;11.30;99.90;;;;;;5025830;28;20041;-73
2022/06/01 04:52:17;;;;;;;26.30;23.80;;;11.40;99.90;;;;;;5029009;28;20052;-72
2022/06/01 04:54:43;;;;;;;28.17;25.48;;;11.40;99.90;;;;;;5049632;28;20128;-72
2022/06/01 04:57:09;;;;;;;27.88;25.05;;;11.40;99.90;;;;;;5027572;28;20037;-71
2022/06/01 04:59:35;;;;;;;29.45;26.55;;;11.50;99.90;;;;;;5027271;28;20034;-72
2022/06/01 05:02:00;;;;;;;26.40;23.80;;;11.50;99.90;;;;;;5025727;28;20046;-72
2022/06/01 05:04:28;;;;;;;27.98;25.25;;;11.50;99.90;;;;;;5027750;28;20049;-73
2022/06/01 05:06:55;;;;;;;27.08;24.48;;;11.50;99.90;;;;;;5028103;28;20172;-73
2022/06/01 05:09:21;;;;;;;25.17;22.67;;;11.60;99.90;;;;;;5028306;28;20048;-72
2022/06/01 05:11:47;;;;;;;21.40;19.30;;;11.60;99.90;;;;;;5032250;28;20041;-73
2022/06/01 05:14:12;;;;;;;23.83;21.52;;;11.70;99.90;;;;;;5027967;28;20042;-73
2022/06/01 05:16:38;;;;;;;24.77;22.08;;;11.70;99.90;;;;;;5027587;28;20041;-72
2022/06/01 05:19:04;;;;;;;26.20;23.52;;;11.70;99.90;;;;;;5026106;28;20500;-72
2022/06/01 05:21:30;;;;;;;27.58;24.67;;;11.60;99.90;;;;;;5029340;28;20049;-72
2022/06/01 05:23:55;;;;;;;26.17;23.58;;;11.70;99.90;;;;;;5031067;28;20030;-72
2022/06/01 05:26:21;;;;;;;27.35;24.55;;;11.70;99.90;;;;;;5030798;28;20040;-72
2022/06/01 05:28:47;;;;;;;32.65;26.67;;;11.70;99.90;;;;;;5024868;28;20049;-72
2022/06/01 05:31:14;;;;;;;30.23;27.35;;;11.80;99.90;;;;;;5039226;28;20110;-73
2022/06/01 05:33:43;;;;;;;30.33;27.23;;;11.80;99.90;;;;;;5003420;28;20037;-72
2022/06/01 05:36:09;;;;;;;30.60;27.48;;;11.90;99.90;;;;;;5023851;28;20088;-72
2022/06/01 05:38:35;;;;;;;28.23;25.52;;;12.00;99.90;;;;;;5024416;28;20698;-72
2022/06/01 05:41:02;;;;;;;30.60;27.17;;;12.00;99.90;;;;;;5026122;28;20033;-74
2022/06/01 05:43:28;;;;;;;30.60;27.55;;;12.10;99.90;;;;;;5006413;28;20988;-73
2022/06/01 05:45:54;;;;;;;32.60;29.50;;;12.10;99.90;;;;;;5023809;28;20053;-72
2022/06/01 05:48:21;;;;;;;33.17;29.77;;;12.10;99.90;;;;;;5026316;28;20103;-72
2022/06/01 05:50:47;;;;;;;32.65;29.38;;;12.20;99.90;;;;;;5045462;28;20503;-73
2022/06/01 05:53:13;;;;;;;32.70;29.35;;;12.20;99.90;;;;;;5025494;28;20042;-72
2022/06/01 05:55:39;;;;;;;32.42;29.23;;;12.30;99.90;;;;;;5041059;28;21760;-72
2022/06/01 05:58:23;;;;;;;31.45;28.33;;;12.30;99.90;;;;;;5024389;28;20041;-72
2022/06/01 06:00:50;;;;;;;29.27;26.48;;;12.40;99.90;;;;;;5028258;28;20160;-72
2022/06/01 06:03:18;;;;;;;29.70;26.80;;;12.40;99.90;;;;;;5021285;28;20065;-72
2022/06/01 06:08:29;;;;;;;28.08;25.38;;;12.40;99.90;;;;;;5024126;28;20936;-73
2022/06/01 06:10:55;;;;;;;28.27;25.15;;;12.40;99.90;;;;;;5022803;28;20072;-72
2022/06/01 06:13:21;;;;;;;25.70;23.20;;;12.50;99.90;;;;;;5007439;28;20045;-73
2022/06/01 06:15:48;;;;;;;26.70;23.88;;;12.50;99.90;;;;;;5019593;28;20377;-72
2022/06/01 06:18:14;;;;;;;27.77;24.83;;;12.50;99.90;;;;;;5025559;28;20115;-72
2022/06/01 06:20:44;;;;;;;26.38;23.77;;;12.50;99.90;;;;;;5026323;28;20488;-73
2022/06/01 06:23:12;;;;;;;26.27;23.58;;;12.50;99.90;;;;;;5024084;28;20040;-73
2022/06/01 06:25:38;;;;;;;24.35;21.75;;;12.40;99.90;;;;;;5027639;28;20041;-72
2022/06/01 06:28:04;;;;;;;25.00;22.58;;;12.40;99.90;;;;;;5026665;28;20080;-73
2022/06/01 06:30:30;;;;;;;24.75;22.35;;;12.60;99.90;;;;;;5032211;28;20072;-72
2022/06/01 06:32:56;;;;;;;21.50;19.50;;;12.60;99.90;;;;;;5003347;28;20069;-73
2022/06/01 06:35:21;;;;;;;19.23;17.42;;;12.70;99.90;;;;;;5026930;28;20454;-73
2022/06/01 06:37:47;;;;;;;22.38;20.10;;;12.70;99.90;;;;;;5022866;28;20155;-73
2022/06/01 06:40:13;;;;;;;19.38;17.38;;;12.90;99.90;;;;;;5030832;28;20498;-73
2022/06/01 06:42:39;;;;;;;17.50;15.75;;;12.90;99.90;;;;;;5032395;28;20037;-74
2022/06/01 06:45:06;;;;;;;18.88;17.08;;;12.90;99.90;;;;;;5032524;28;20518;-73
2022/06/01 06:47:32;;;;;;;19.40;17.50;;;13.00;99.90;;;;;;5031875;28;20520;-73
2022/06/01 06:50:04;;;;;;;19.00;17.08;;;13.10;99.90;;;;;;5031370;28;20038;-73
2022/06/01 06:52:29;;;;;;;20.85;18.65;;;13.20;99.90;;;;;;5030955;28;20131;-72
2022/06/01 06:54:56;;;;;;;20.33;18.38;;;13.30;99.90;;;;;;5028420;28;20112;-72
2022/06/01 06:57:21;;;;;;;21.88;19.70;;;13.20;99.90;;;;;;5032657;28;20052;-73
2022/06/01 06:59:48;;;;;;;22.75;20.48;;;13.20;99.90;;;;;;5030942;28;20125;-72
2022/06/01 07:02:16;;;;;;;23.17;20.80;;;13.20;99.90;;;;;;5032491;28;20033;-73
2022/06/01 07:04:42;;;;;;;20.42;18.42;;;13.30;99.90;;;;;;5030373;28;20137;-72
2022/06/01 07:07:08;;;;;;;20.58;18.17;;;13.50;99.90;;;;;;5028613;28;20037;-72
2022/06/01 07:09:34;;;;;;;20.23;18.42;;;13.60;99.90;;;;;;5032652;28;20068;-73
2022/06/01 07:11:59;;;;;;;20.73;18.63;;;13.70;99.90;;;;;;5034458;28;20044;-72
2022/06/01 07:14:25;;;;;;;17.60;15.90;;;13.80;99.90;;;;;;5031157;28;20128;-73
2022/06/01 07:16:51;;;;;;;16.27;14.73;;;14.10;99.90;;;;;;5028216;28;20041;-73
2022/06/01 07:19:16;;;;;;;13.65;12.45;;;14.40;99.90;;;;;;5031396;28;20034;-73
2022/06/01 07:21:42;;;;;;;14.02;12.70;;;14.50;99.90;;;;;;5031207;28;20034;-74
2022/06/01 07:24:09;;;;;;;15.15;13.73;;;14.50;99.90;;;;;;5031109;28;20041;-74
2022/06/01 07:26:41;;;;;;;14.00;12.57;;;14.50;99.90;;;;;;5036761;28;20041;-74
2022/06/01 07:29:07;;;;;;;12.68;11.45;;;14.50;99.90;;;;;;5032081;28;20044;-73
2022/06/01 07:31:33;;;;;;;12.15;10.88;;;14.50;99.90;;;;;;5027001;28;20038;-74
2022/06/01 07:33:59;;;;;;;12.00;10.80;;;14.60;99.90;;;;;;5026794;28;20124;-74
2022/06/01 07:36:26;;;;;;;12.52;11.27;;;14.70;99.90;;;;;;5030977;28;20076;-73
2022/06/01 07:44:39;;;;;;;12.10;10.90;;;14.70;99.90;;;;;;5031315;28;20052;-73
2022/06/01 07:47:05;;;;;;;10.95;9.95;;;14.70;99.90;;;;;;5028114;28;20053;-73
2022/06/01 07:49:31;;;;;;;12.32;10.98;;;14.50;99.90;;;;;;5030508;28;20034;-74
2022/06/01 07:51:57;;;;;;;12.85;11.60;;;14.50;99.90;;;;;;5027711;28;20044;-74
2022/06/01 07:54:23;;;;;;;9.68;8.77;;;14.40;99.90;;;;;;5012904;28;20041;-73
2022/06/01 07:56:49;;;;;;;10.60;9.63;;;14.20;99.90;;;;;;5030592;28;20033;-74
2022/06/01 07:59:15;;;;;;;11.95;10.77;;;14.00;99.90;;;;;;5031058;28;20044;-74
2022/06/01 08:01:41;;;;;;;11.95;10.75;;;13.90;99.90;;;;;;5026466;28;20029;-74
2022/06/01 08:04:08;;;;;;;12.75;11.35;;;13.80;99.90;;;;;;5031026;28;20041;-74
2022/06/01 08:06:35;;;;;;;11.95;10.63;;;13.70;99.90;;;;;;5027251;28;20044;-75
2022/06/01 08:09:03;;;;;;;13.25;11.95;;;13.60;99.90;;;;;;5031244;28;20065;-74
2022/06/01 08:14:14;;;;;;;14.68;12.05;;;13.60;99.90;;;;;;5031553;28;20396;-74
2022/06/01 08:16:42;;;;;;;12.13;10.80;;;13.70;99.90;;;;;;5033575;28;20037;-74
2022/06/01 08:19:09;;;;;;;13.27;10.98;;;13.80;99.90;;;;;;5032862;28;20052;-74
2022/06/01 08:21:36;;;;;;;10.38;9.48;;;13.90;99.90;;;;;;5032739;28;20380;-74
2022/06/01 08:24:03;;;;;;;12.45;8.23;;;13.80;99.90;;;;;;5029340;28;20033;-74
2022/06/01 08:26:29;;;;;;;8.75;7.40;;;13.70;99.90;;;;;;5026987;28;20044;-74
2022/06/01 08:28:55;;;;;;;5.43;4.93;;;13.60;99.90;;;;;;5028312;28;20037;-74
2022/06/01 08:31:26;;;;;;;5.10;4.60;;;13.40;99.90;;;;;;5030657;28;20045;-74
2022/06/01 08:33:53;;;;;;;4.20;3.80;;;13.40;99.90;;;;;;5030362;28;20030;-74
2022/06/01 08:36:18;;;;;;;5.60;3.50;;;13.30;99.90;;;;;;5029258;28;20049;-74
2022/06/01 08:38:44;;;;;;;3.70;2.67;;;13.20;99.90;;;;;;5030045;28;20049;-74
2022/06/01 08:41:13;;;;;;;2.40;2.20;;;13.10;99.90;;;;;;5026094;28;20057;-74
2022/06/01 08:43:51;;;;;;;1.77;1.67;;;13.10;99.90;;;;;;5027695;28;20385;-74
2022/06/01 08:46:18;;;;;;;2.50;2.30;;;13.00;99.90;;;;;;5029925;28;20099;-75
2022/06/01 08:49:01;;;;;;;2.45;2.20;;;13.10;99.90;;;;;;5028605;28;20041;-74
2022/06/01 08:51:28;;;;;;;3.00;2.80;;;13.10;99.90;;;;;;5028878;28;21299;-74
2022/06/01 08:53:55;;;;;;;3.38;2.53;;;13.10;99.90;;;;;;5031795;28;20041;-73
2022/06/01 08:56:27;;;;;;;3.33;2.65;;;13.10;99.90;;;;;;5027046;28;20140;-74
2022/06/01 08:59:05;;;;;;;2.97;2.72;;;13.20;99.90;;;;;;5013017;28;20041;-73
2022/06/01 09:01:56;;;;;;;3.17;2.85;;;13.20;99.90;;;;;;5025852;28;20046;-74
2022/06/01 09:04:30;;;;;;;4.07;2.60;;;13.20;99.90;;;;;;5027104;28;20054;-73
2022/06/01 09:07:21;;;;;;;3.38;3.08;;;13.40;99.90;;;;;;5027342;28;20040;-74
2022/06/01 09:10:10;;;;;;;3.78;3.17;;;13.70;99.90;;;;;;5027076;28;20083;-74
2022/06/01 09:12:36;;;;;;;3.63;2.85;;;13.90;99.90;;;;;;5028256;28;20048;-74
2022/06/01 09:15:27;;;;;;;4.32;3.13;;;14.30;99.90;;;;;;5011441;28;20045;-74
2022/06/01 09:17:54;;;;;;;3.33;2.30;;;14.80;99.90;;;;;;5026526;28;20041;-73
2022/06/01 09:23:15;;;;;;;3.47;2.10;;;15.30;99.90;;;;;;5029449;28;20065;-73
2022/06/01 09:25:50;;;;;;;3.25;1.83;;;15.50;99.90;;;;;;5029203;28;20037;-73
2022/06/01 09:28:27;;;;;;;2.35;1.88;;;15.70;99.90;;;;;;5025914;28;20485;-73
2022/06/01 09:31:02;;;;;;;2.30;2.10;;;15.90;99.90;;;;;;5019361;28;20095;-73
2022/06/01 09:33:40;;;;;;;3.22;2.60;;;16.10;99.90;;;;;;5027437;28;20118;-73
2022/06/01 09:36:09;;;;;;;3.15;2.47;;;16.20;99.90;;;;;;5026465;28;20480;-73
2022/06/01 09:38:37;;;;;;;3.47;2.60;;;16.30;99.90;;;;;;5028745;28;20482;-73
2022/06/01 09:41:12;;;;;;;12.15;4.30;;;16.30;99.90;;;;;;5025140;28;20069;-75
2022/06/01 09:43:40;;;;;;;25.05;5.57;;;16.20;99.90;;;;;;5029437;28;20040;-75
2022/06/01 09:46:07;;;;;;;13.52;4.50;;;16.00;99.90;;;;;;5024643;28;20045;-74
2022/06/01 09:48:37;;;;;;;12.63;4.38;;;15.70;99.90;;;;;;5027115;28;20049;-74
2022/06/01 09:51:16;;;;;;;3.35;2.22;;;15.40;99.90;;;;;;5025429;28;20045;-74
2022/06/01 09:53:50;;;;;;;1.88;1.42;;;14.90;99.90;;;;;;5028466;28;20052;-74
2022/06/01 09:56:27;;;;;;;1.90;1.27;;;14.40;99.90;;;;;;5025345;28;20046;-75
2022/06/01 10:07:29;;;;;;;1.92;1.80;;;13.90;99.90;;;;;;5027767;28;20558;-75
2022/06/01 10:09:58;;;;;;;1.90;1.48;;;13.90;99.90;;;;;;5022825;28;20049;-75
2022/06/01 10:12:42;;;;;;;1.55;1.45;;;14.10;99.90;;;;;;5031663;28;20052;-75
2022/06/01 10:15:26;;;;;;;2.97;1.40;;;14.50;99.90;;;;;;5036106;28;20036;-74
2022/06/01 10:18:09;;;;;;;1.05;1.00;;;15.00;99.90;;;;;;5030488;28;20080;-74
2022/06/01 10:20:40;;;;;;;1.67;1.30;;;15.40;99.90;;;;;;5026134;28;20484;-73
2022/06/01 10:23:24;;;;;;;4.30;1.33;;;15.70;99.90;;;;;;5029627;28;20040;-74
2022/06/01 10:26:14;;;;;;;3.05;1.50;;;15.70;99.90;;;;;;5032711;28;20126;-74
2022/06/01 10:28:45;;;;;;;3.78;1.77;;;15.70;99.90;;;;;;5027169;28;20546;-74
2022/06/01 10:31:42;;;;;;;2.85;1.77;;;15.70;99.90;;;;;;5031377;28;20503;-74
2022/06/01 10:34:47;;;;;;;1.80;1.58;;;15.90;99.90;;;;;;5018182;28;20037;-74
2022/06/01 10:37:35;;;;;;;3.30;2.10;;;16.20;99.90;;;;;;5035348;28;20033;-74
2022/06/01 10:40:07;;;;;;;3.00;2.28;;;16.20;99.90;;;;;;5023836;28;20563;-74
2022/06/01 10:45:34;;;;;;;2.72;2.28;;;16.00;99.90;;;;;;5033546;28;20389;-74
2022/06/01 10:48:18;;;;;;;3.10;2.28;;;15.90;99.90;;;;;;5013114;28;20376;-74
2022/06/01 10:51:04;;;;;;;2.40;2.20;;;15.70;99.90;;;;;;5042639;28;20507;-75
2022/06/01 10:53:44;;;;;;;4.57;2.83;;;16.10;99.90;;;;;;5034009;28;20046;-74
2022/06/01 10:56:12;;;;;;;3.10;2.60;;;16.30;99.90;;;;;;5027336;28;20130;-73
2022/06/01 10:58:38;;;;;;;3.22;2.92;;;16.50;99.90;;;;;;5030759;28;20361;-74
2022/06/01 11:01:13;;;;;;;2.03;1.83;;;16.60;99.90;;;;;;5029999;28;20750;-74
2022/06/01 11:04:08;;;;;;;2.72;0.98;;;16.60;99.90;;;;;;5030962;28;20388;-74
2022/06/01 11:07:06;;;;;;;0.90;0.90;;;16.60;99.90;;;;;;5026093;28;20693;-74
2022/06/01 11:09:56;;;;;;;0.57;0.50;;;16.90;99.90;;;;;;5031397;28;20050;-74
2022/06/01 11:12:44;;;;;;;2.33;0.70;;;17.10;99.90;;;;;;5030461;28;20399;-74
2022/06/01 11:15:27;;;;;;;1.17;0.60;;;17.30;99.90;;;;;;5027279;28;20069;-75
2022/06/01 11:18:04;;;;;;;1.55;0.57;;;17.60;99.90;;;;;;5029300;28;20080;-75
2022/06/01 11:20:57;;;;;;;0.73;0.73;;;17.60;99.90;;;;;;5049113;28;20053;-74
2022/06/01 11:23:47;;;;;;;3.33;1.25;;;17.50;99.90;;;;;;5025933;28;20404;-74
2022/06/01 11:26:32;;;;;;;1.90;1.60;;;17.20;99.90;;;;;;5033144;28;20475;-74
2022/06/01 11:29:19;;;;;;;4.30;2.90;;;16.90;99.90;;;;;;5032400;28;20092;-74
2022/06/01 11:31:49;;;;;;;3.90;2.60;;;16.30;99.90;;;;;;5024514;28;20124;-74
2022/06/01 11:34:56;;;;;;;1.60;1.40;;;16.10;99.90;;;;;;5030168;28;20033;-75
2022/06/01 11:37:32;;;;;;;1.70;1.00;;;15.80;99.90;;;;;;4996291;28;20061;-74
2022/06/01 11:40:11;;;;;;;2.97;0.90;;;15.50;99.90;;;;;;5027603;28;20033;-74
2022/06/01 11:42:43;;;;;;;0.70;0.60;;;15.30;99.90;;;;;;5027334;28;20040;-74
2022/06/01 11:45:18;;;;;;;1.90;0.75;;;15.00;99.90;;;;;;5021728;28;20049;-74
2022/06/01 11:48:00;;;;;;;2.47;0.70;;;14.80;99.90;;;;;;5025619;28;20036;-75
2022/06/01 11:50:44;;;;;;;1.27;0.50;;;14.70;99.90;;;;;;5031291;28;20076;-74
2022/06/01 11:53:12;;;;;;;2.42;0.70;;;14.90;99.90;;;;;;5029876;28;20029;-75
2022/06/01 11:55:38;;;;;;;2.28;0.40;;;15.10;99.90;;;;;;5031364;28;20083;-75
2022/06/01 11:58:06;;;;;;;0.47;0.47;;;15.40;99.90;;;;;;5029987;28;20041;-75
2022/06/01 12:00:57;;;;;;;1.23;0.60;;;15.60;99.90;;;;;;5014484;28;20077;-75
2022/06/01 12:03:24;;;;;;;1.50;0.40;;;15.80;99.90;;;;;;5029389;28;20045;-75
2022/06/01 12:06:08;;;;;;;0.40;0.40;;;15.90;99.90;;;;;;5028124;28;20042;-74
2022/06/01 12:08:56;;;;;;;0.50;0.50;;;15.90;99.90;;;;;;5033454;28;20048;-74
2022/06/01 12:11:40;;;;;;;2.05;0.50;;;16.00;99.90;;;;;;5030655;28;20045;-74
2022/06/01 12:14:27;;;;;;;0.52;0.50;;;16.10;99.90;;;;;;5026276;28;20042;-74
2022/06/01 12:17:18;;;;;;;0.40;0.40;;;16.30;99.90;;;;;;5032304;28;20033;-73
2022/06/01 12:19:47;;;;;;;1.77;0.65;;;16.50;99.90;;;;;;5027701;28;20088;-74
2022/06/01 12:28:31;;;;;;;1.88;0.50;;;17.80;99.90;;;;;;5028705;28;20073;-73
2022/06/01 12:31:13;;;;;;;0.93;0.50;;;18.20;99.90;;;;;;5031250;28;20086;-74
2022/06/01 12:34:03;;;;;;;0.40;0.40;;;18.20;99.90;;;;;;5028272;28;20041;-74
2022/06/01 12:36:40;;;;;;;0.85;0.60;;;18.40;99.90;;;;;;5033588;28;20145;-74
2022/06/01 12:39:19;;;;;;;1.98;0.50;;;18.60;99.90;;;;;;5015074;28;20037;-74
2022/06/01 12:41:49;;;;;;;0.88;0.50;;;19.00;99.90;;;;;;5025949;28;20054;-73
2022/06/01 12:44:17;;;;;;;0.82;0.60;;;19.10;99.90;;;;;;5029356;28;20119;-71
2022/06/01 12:46:48;;;;;;;1.52;1.00;;;19.10;99.70;;;;;;5031025;28;20037;-72
2022/06/01 12:49:19;;;;;;;1.05;0.90;;;19.40;96.30;;;;;;5025052;28;20396;-70
2022/06/01 12:51:45;;;;;;;1.05;0.90;;;19.40;99.70;;;;;;5027481;28;20091;-69
2022/06/01 12:54:11;;;;;;;1.27;0.80;;;19.70;95.70;;;;;;5032893;28;20037;-70
2022/06/01 12:56:47;;;;;;;0.90;0.80;;;19.90;98.20;;;;;;5030195;28;20040;-70
2022/06/01 12:59:14;;;;;;;2.25;1.00;;;19.90;94.00;;;;;;5028088;28;20098;-70
2022/06/01 13:01:39;;;;;;;2.17;1.02;;;19.80;96.90;;;;;;5025951;28;20049;-70
2022/06/01 13:04:05;;;;;;;1.45;0.90;;;19.70;98.60;;;;;;5024051;28;20502;-70
2022/06/01 13:06:39;;;;;;;1.15;1.05;;;19.50;98.70;;;;;;5027398;28;20045;-70
2022/06/01 13:09:09;;;;;;;1.70;1.20;;;19.10;99.90;;;;;;5024228;28;20389;-70
2022/06/01 13:11:36;;;;;;;1.58;1.25;;;18.90;98.40;;;;;;5029056;28;20044;-70
2022/06/01 13:14:06;;;;;;;4.28;1.58;;;18.50;99.90;;;;;;5026442;28;20034;-70
2022/06/01 13:16:43;;;;;;;3.15;1.50;;;18.30;99.90;;;;;;5030447;28;20037;-70
2022/06/01 13:19:17;;;;;;;2.05;1.60;;;18.20;99.90;;;;;;4999911;28;20434;-71
2022/06/01 13:21:46;;;;;;;1.48;1.38;;;18.10;99.90;;;;;;5014744;28;20130;-70
2022/06/01 13:24:13;;;;;;;4.10;1.30;;;18.30;99.90;;;;;;5027047;28;20117;-71
2022/06/01 13:26:44;;;;;;;2.40;1.00;;;18.70;99.90;;;;;;5026798;28;20056;-70
2022/06/01 13:29:16;;;;;;;0.70;0.70;;;19.10;99.90;;;;;;5030045;28;20032;-70